sensor_id;sensor_type;location;lat;lon;timestamp;P1;durP1;ratioP1;P2;durP2;ratioP2
54157;SDS011;40065;49.894;10.358;2022-07-29T00:01:56;5.05;;;2.63;;
54157;SDS011;40065;49.894;10.358;2022-07-29T00:07:00;8.77;;;2.83;;
54157;SDS011;40065;49.894;10.358;2022-07-29T00:12:01;4.55;;;2.70;;
54157;SDS011;40065;49.894;10.358;2022-07-29T00:17:03;5.78;;;2.80;;
54157;SDS011;40065;49.894;10.358;2022-07-29T00:22:05;7.85;;;2.63;;
54157;SDS011;40065;49.894;10.358;2022-07-29T00:27:07;5.95;;;2.70;;
54157;SDS011;40065;49.894;10.358;2022-07-29T00:32:09;7.05;;;2.63;;
54157;SDS011;40065;49.894;10.358;2022-07-29T00:37:11;6.63;;;2.47;;
54157;SDS011;40065;49.894;10.358;2022-07-29T00:42:13;4.90;;;2.25;;
54157;SDS011;40065;49.894;10.358;2022-07-29T00:47:14;4.80;;;2.15;;
54157;SDS011;40065;49.894;10.358;2022-07-29T00:52:16;4.38;;;2.53;;
54157;SDS011;40065;49.894;10.358;2022-07-29T00:57:18;4.03;;;2.30;;
54157;SDS011;40065;49.894;10.358;2022-07-29T01:02:21;4.60;;;2.40;;
54157;SDS011;40065;49.894;10.358;2022-07-29T01:07:23;5.50;;;2.22;;
54157;SDS011;40065;49.894;10.358;2022-07-29T01:12:26;4.82;;;2.00;;
54157;SDS011;40065;49.894;10.358;2022-07-29T01:32:42;3.80;;;2.40;;
54157;SDS011;40065;49.894;10.358;2022-07-29T01:43:00;5.60;;;2.38;;
54157;SDS011;40065;49.894;10.358;2022-07-29T01:53:35;6.35;;;2.88;;
54157;SDS011;40065;49.894;10.358;2022-07-29T01:58:43;4.13;;;2.22;;
54157;SDS011;40065;49.894;10.358;2022-07-29T02:03:48;5.13;;;2.80;;
54157;SDS011;40065;49.894;10.358;2022-07-29T02:08:51;5.43;;;2.93;;
54157;SDS011;40065;49.894;10.358;2022-07-29T02:13:54;3.63;;;2.30;;
54157;SDS011;40065;49.894;10.358;2022-07-29T02:19:00;4.45;;;2.50;;
54157;SDS011;40065;49.894;10.358;2022-07-29T02:24:04;3.70;;;2.20;;
54157;SDS011;40065;49.894;10.358;2022-07-29T02:29:06;6.80;;;2.72;;
54157;SDS011;40065;49.894;10.358;2022-07-29T02:34:09;4.38;;;2.90;;
54157;SDS011;40065;49.894;10.358;2022-07-29T02:39:13;4.75;;;2.30;;
54157;SDS011;40065;49.894;10.358;2022-07-29T02:44:17;5.50;;;2.33;;
54157;SDS011;40065;49.894;10.358;2022-07-29T02:54:41;6.43;;;2.60;;
54157;SDS011;40065;49.894;10.358;2022-07-29T02:59:47;7.65;;;2.75;;
54157;SDS011;40065;49.894;10.358;2022-07-29T03:04:52;4.65;;;2.20;;
54157;SDS011;40065;49.894;10.358;2022-07-29T03:09:58;3.80;;;1.60;;
54157;SDS011;40065;49.894;10.358;2022-07-29T03:15:00;4.03;;;2.22;;
54157;SDS011;40065;49.894;10.358;2022-07-29T03:20:03;4.40;;;2.00;;
54157;SDS011;40065;49.894;10.358;2022-07-29T03:25:09;4.90;;;2.33;;
54157;SDS011;40065;49.894;10.358;2022-07-29T03:30:12;5.97;;;2.75;;
54157;SDS011;40065;49.894;10.358;2022-07-29T03:35:22;4.57;;;2.17;;
54157;SDS011;40065;49.894;10.358;2022-07-29T03:40:26;7.35;;;2.47;;
54157;SDS011;40065;49.894;10.358;2022-07-29T03:45:32;4.50;;;2.40;;
54157;SDS011;40065;49.894;10.358;2022-07-29T03:50:35;5.20;;;2.50;;
54157;SDS011;40065;49.894;10.358;2022-07-29T03:55:41;4.05;;;2.20;;
54157;SDS011;40065;49.894;10.358;2022-07-29T04:00:46;4.03;;;2.42;;
54157;SDS011;40065;49.894;10.358;2022-07-29T04:06:04;5.75;;;2.17;;
54157;SDS011;40065;49.894;10.358;2022-07-29T04:11:07;4.80;;;2.20;;
54157;SDS011;40065;49.894;10.358;2022-07-29T04:16:09;5.28;;;2.63;;
54157;SDS011;40065;49.894;10.358;2022-07-29T04:21:11;5.07;;;2.10;;
54157;SDS011;40065;49.894;10.358;2022-07-29T04:26:13;2.97;;;1.80;;
54157;SDS011;40065;49.894;10.358;2022-07-29T04:31:15;4.30;;;1.73;;
54157;SDS011;40065;49.894;10.358;2022-07-29T04:36:16;3.63;;;1.58;;
54157;SDS011;40065;49.894;10.358;2022-07-29T04:41:29;3.35;;;1.67;;
54157;SDS011;40065;49.894;10.358;2022-07-29T04:51:36;4.75;;;2.35;;
54157;SDS011;40065;49.894;10.358;2022-07-29T04:56:37;7.07;;;2.40;;
54157;SDS011;40065;49.894;10.358;2022-07-29T05:01:39;6.60;;;2.22;;
54157;SDS011;40065;49.894;10.358;2022-07-29T05:06:41;5.65;;;2.38;;
54157;SDS011;40065;49.894;10.358;2022-07-29T05:11:43;3.67;;;2.15;;
54157;SDS011;40065;49.894;10.358;2022-07-29T05:16:45;3.95;;;1.83;;
54157;SDS011;40065;49.894;10.358;2022-07-29T05:21:46;4.80;;;1.80;;
54157;SDS011;40065;49.894;10.358;2022-07-29T05:26:48;5.88;;;1.90;;
54157;SDS011;40065;49.894;10.358;2022-07-29T05:31:50;6.90;;;2.20;;
54157;SDS011;40065;49.894;10.358;2022-07-29T05:36:53;6.78;;;2.42;;
54157;SDS011;40065;49.894;10.358;2022-07-29T05:41:55;3.85;;;1.60;;
54157;SDS011;40065;49.894;10.358;2022-07-29T05:46:57;4.55;;;2.00;;
54157;SDS011;40065;49.894;10.358;2022-07-29T05:51:59;3.40;;;1.95;;
54157;SDS011;40065;49.894;10.358;2022-07-29T05:57:01;4.03;;;1.90;;
54157;SDS011;40065;49.894;10.358;2022-07-29T06:02:03;2.88;;;1.80;;
54157;SDS011;40065;49.894;10.358;2022-07-29T06:07:06;2.85;;;1.60;;
54157;SDS011;40065;49.894;10.358;2022-07-29T06:12:10;3.80;;;1.60;;
54157;SDS011;40065;49.894;10.358;2022-07-29T06:17:11;4.65;;;1.50;;
54157;SDS011;40065;49.894;10.358;2022-07-29T06:22:14;4.10;;;1.48;;
54157;SDS011;40065;49.894;10.358;2022-07-29T06:27:17;2.78;;;1.23;;
54157;SDS011;40065;49.894;10.358;2022-07-29T06:32:19;3.13;;;1.30;;
54157;SDS011;40065;49.894;10.358;2022-07-29T06:37:23;8.30;;;1.73;;
54157;SDS011;40065;49.894;10.358;2022-07-29T06:42:26;3.88;;;1.60;;
54157;SDS011;40065;49.894;10.358;2022-07-29T06:47:28;4.32;;;1.27;;
54157;SDS011;40065;49.894;10.358;2022-07-29T06:52:30;4.80;;;1.58;;
54157;SDS011;40065;49.894;10.358;2022-07-29T06:57:31;2.78;;;1.20;;
54157;SDS011;40065;49.894;10.358;2022-07-29T07:02:34;3.88;;;1.50;;
54157;SDS011;40065;49.894;10.358;2022-07-29T07:07:35;2.28;;;1.10;;
54157;SDS011;40065;49.894;10.358;2022-07-29T07:12:37;1.83;;;1.10;;
54157;SDS011;40065;49.894;10.358;2022-07-29T07:17:39;4.68;;;1.35;;
54157;SDS011;40065;49.894;10.358;2022-07-29T07:22:41;3.40;;;1.60;;
54157;SDS011;40065;49.894;10.358;2022-07-29T07:27:44;3.92;;;1.58;;
54157;SDS011;40065;49.894;10.358;2022-07-29T07:32:46;4.43;;;1.48;;
54157;SDS011;40065;49.894;10.358;2022-07-29T07:37:48;6.32;;;1.60;;
54157;SDS011;40065;49.894;10.358;2022-07-29T07:42:49;2.78;;;1.45;;
54157;SDS011;40065;49.894;10.358;2022-07-29T07:47:51;2.72;;;1.33;;
54157;SDS011;40065;49.894;10.358;2022-07-29T07:52:54;5.03;;;1.30;;
54157;SDS011;40065;49.894;10.358;2022-07-29T07:57:59;4.10;;;1.40;;
54157;SDS011;40065;49.894;10.358;2022-07-29T08:03:01;3.80;;;1.40;;
54157;SDS011;40065;49.894;10.358;2022-07-29T08:08:17;2.90;;;1.60;;
54157;SDS011;40065;49.894;10.358;2022-07-29T08:13:20;2.90;;;1.20;;
54157;SDS011;40065;49.894;10.358;2022-07-29T08:18:26;4.95;;;1.67;;
54157;SDS011;40065;49.894;10.358;2022-07-29T08:23:29;7.13;;;1.70;;
54157;SDS011;40065;49.894;10.358;2022-07-29T08:28:48;2.33;;;1.50;;
54157;SDS011;40065;49.894;10.358;2022-07-29T08:33:51;3.33;;;1.52;;
54157;SDS011;40065;49.894;10.358;2022-07-29T08:38:53;2.77;;;1.80;;
54157;SDS011;40065;49.894;10.358;2022-07-29T08:43:55;3.10;;;1.60;;
54157;SDS011;40065;49.894;10.358;2022-07-29T08:48:57;4.78;;;1.67;;
54157;SDS011;40065;49.894;10.358;2022-07-29T08:53:59;3.03;;;1.60;;
54157;SDS011;40065;49.894;10.358;2022-07-29T08:59:04;3.22;;;1.63;;
54157;SDS011;40065;49.894;10.358;2022-07-29T09:04:12;3.42;;;1.55;;
54157;SDS011;40065;49.894;10.358;2022-07-29T09:14:16;4.35;;;1.40;;
54157;SDS011;40065;49.894;10.358;2022-07-29T09:24:24;7.07;;;1.90;;
54157;SDS011;40065;49.894;10.358;2022-07-29T09:29:28;7.88;;;2.55;;
54157;SDS011;40065;49.894;10.358;2022-07-29T09:34:36;6.70;;;1.73;;
54157;SDS011;40065;49.894;10.358;2022-07-29T09:39:39;5.20;;;1.45;;
54157;SDS011;40065;49.894;10.358;2022-07-29T09:44:47;3.05;;;1.50;;
54157;SDS011;40065;49.894;10.358;2022-07-29T09:49:52;6.35;;;1.75;;
54157;SDS011;40065;49.894;10.358;2022-07-29T09:55:09;5.07;;;1.65;;
54157;SDS011;40065;49.894;10.358;2022-07-29T10:05:22;8.00;;;1.83;;
54157;SDS011;40065;49.894;10.358;2022-07-29T10:10:25;2.85;;;1.55;;
54157;SDS011;40065;49.894;10.358;2022-07-29T10:15:30;4.00;;;1.70;;
54157;SDS011;40065;49.894;10.358;2022-07-29T10:20:33;3.03;;;2.00;;
54157;SDS011;40065;49.894;10.358;2022-07-29T10:25:35;3.95;;;2.00;;
54157;SDS011;40065;49.894;10.358;2022-07-29T10:30:37;3.88;;;2.08;;
54157;SDS011;40065;49.894;10.358;2022-07-29T10:46:34;3.42;;;2.00;;
54157;SDS011;40065;49.894;10.358;2022-07-29T11:02:53;5.73;;;2.00;;
54157;SDS011;40065;49.894;10.358;2022-07-29T11:24:15;3.83;;;2.05;;
54157;SDS011;40065;49.894;10.358;2022-07-29T11:29:47;5.45;;;2.15;;
54157;SDS011;40065;49.894;10.358;2022-07-29T11:35:12;3.58;;;1.90;;
54157;SDS011;40065;49.894;10.358;2022-07-29T11:40:18;5.10;;;1.77;;
54157;SDS011;40065;49.894;10.358;2022-07-29T11:45:22;5.80;;;2.15;;
54157;SDS011;40065;49.894;10.358;2022-07-29T11:50:45;6.38;;;2.42;;
54157;SDS011;40065;49.894;10.358;2022-07-29T11:55:48;3.55;;;1.80;;
54157;SDS011;40065;49.894;10.358;2022-07-29T12:00:58;3.60;;;1.95;;
54157;SDS011;40065;49.894;10.358;2022-07-29T12:06:14;5.63;;;2.13;;
54157;SDS011;40065;49.894;10.358;2022-07-29T12:11:20;3.67;;;2.13;;
54157;SDS011;40065;49.894;10.358;2022-07-29T12:16:33;6.05;;;2.10;;
54157;SDS011;40065;49.894;10.358;2022-07-29T12:21:46;4.57;;;2.28;;
54157;SDS011;40065;49.894;10.358;2022-07-29T12:27:00;4.28;;;2.10;;
54157;SDS011;40065;49.894;10.358;2022-07-29T12:32:03;4.60;;;2.45;;
54157;SDS011;40065;49.894;10.358;2022-07-29T12:37:15;3.40;;;1.90;;
54157;SDS011;40065;49.894;10.358;2022-07-29T12:48:04;3.40;;;1.90;;
54157;SDS011;40065;49.894;10.358;2022-07-29T12:53:10;4.97;;;2.00;;
54157;SDS011;40065;49.894;10.358;2022-07-29T12:58:13;2.70;;;2.00;;
54157;SDS011;40065;49.894;10.358;2022-07-29T13:08:19;4.57;;;2.05;;
54157;SDS011;40065;49.894;10.358;2022-07-29T13:13:23;2.80;;;1.90;;
54157;SDS011;40065;49.894;10.358;2022-07-29T13:23:30;5.20;;;2.20;;
54157;SDS011;40065;49.894;10.358;2022-07-29T13:28:38;6.10;;;2.13;;
54157;SDS011;40065;49.894;10.358;2022-07-29T13:33:44;3.58;;;2.10;;
54157;SDS011;40065;49.894;10.358;2022-07-29T13:38:46;6.20;;;1.93;;
54157;SDS011;40065;49.894;10.358;2022-07-29T13:43:48;4.97;;;1.87;;
54157;SDS011;40065;49.894;10.358;2022-07-29T13:48:50;3.00;;;1.75;;
54157;SDS011;40065;49.894;10.358;2022-07-29T13:53:52;4.63;;;2.08;;
54157;SDS011;40065;49.894;10.358;2022-07-29T13:58:54;3.43;;;2.07;;
54157;SDS011;40065;49.894;10.358;2022-07-29T14:03:56;2.50;;;2.05;;
54157;SDS011;40065;49.894;10.358;2022-07-29T14:08:58;2.92;;;2.00;;
54157;SDS011;40065;49.894;10.358;2022-07-29T14:14:00;4.17;;;2.03;;
54157;SDS011;40065;49.894;10.358;2022-07-29T14:19:02;3.78;;;2.13;;
54157;SDS011;40065;49.894;10.358;2022-07-29T14:24:04;5.97;;;2.47;;
54157;SDS011;40065;49.894;10.358;2022-07-29T14:29:22;3.38;;;1.90;;
54157;SDS011;40065;49.894;10.358;2022-07-29T14:34:38;4.07;;;2.22;;
54157;SDS011;40065;49.894;10.358;2022-07-29T14:39:40;5.45;;;2.17;;
54157;SDS011;40065;49.894;10.358;2022-07-29T14:44:43;4.03;;;2.20;;
54157;SDS011;40065;49.894;10.358;2022-07-29T14:49:47;2.97;;;2.22;;
54157;SDS011;40065;49.894;10.358;2022-07-29T14:54:48;3.47;;;2.15;;
54157;SDS011;40065;49.894;10.358;2022-07-29T14:59:50;5.90;;;2.20;;
54157;SDS011;40065;49.894;10.358;2022-07-29T15:04:52;4.28;;;2.00;;
54157;SDS011;40065;49.894;10.358;2022-07-29T15:09:54;3.85;;;2.20;;
54157;SDS011;40065;49.894;10.358;2022-07-29T15:14:59;3.85;;;2.47;;
54157;SDS011;40065;49.894;10.358;2022-07-29T15:20:03;5.80;;;2.58;;
54157;SDS011;40065;49.894;10.358;2022-07-29T15:25:06;4.10;;;2.42;;
54157;SDS011;40065;49.894;10.358;2022-07-29T15:30:09;3.95;;;2.03;;
54157;SDS011;40065;49.894;10.358;2022-07-29T15:35:31;7.18;;;2.22;;
54157;SDS011;40065;49.894;10.358;2022-07-29T15:40:40;4.53;;;1.90;;
54157;SDS011;40065;49.894;10.358;2022-07-29T15:45:44;2.83;;;2.10;;
54157;SDS011;40065;49.894;10.358;2022-07-29T15:51:06;5.47;;;2.28;;
54157;SDS011;40065;49.894;10.358;2022-07-29T15:56:08;6.10;;;2.55;;
54157;SDS011;40065;49.894;10.358;2022-07-29T16:01:10;3.67;;;1.90;;
54157;SDS011;40065;49.894;10.358;2022-07-29T16:06:12;7.63;;;2.00;;
54157;SDS011;40065;49.894;10.358;2022-07-29T16:11:14;13.77;;;4.43;;
54157;SDS011;40065;49.894;10.358;2022-07-29T16:16:19;15.13;;;5.03;;
54157;SDS011;40065;49.894;10.358;2022-07-29T16:21:21;7.90;;;4.70;;
54157;SDS011;40065;49.894;10.358;2022-07-29T16:26:26;7.40;;;4.65;;
54157;SDS011;40065;49.894;10.358;2022-07-29T16:31:28;7.85;;;3.97;;
54157;SDS011;40065;49.894;10.358;2022-07-29T16:36:29;13.18;;;4.80;;
54157;SDS011;40065;49.894;10.358;2022-07-29T16:41:31;6.93;;;3.67;;
54157;SDS011;40065;49.894;10.358;2022-07-29T16:46:33;6.53;;;4.78;;
54157;SDS011;40065;49.894;10.358;2022-07-29T16:51:39;7.93;;;4.10;;
54157;SDS011;40065;49.894;10.358;2022-07-29T16:56:42;8.20;;;4.40;;
54157;SDS011;40065;49.894;10.358;2022-07-29T17:01:44;5.43;;;4.20;;
54157;SDS011;40065;49.894;10.358;2022-07-29T17:06:46;7.15;;;4.25;;
54157;SDS011;40065;49.894;10.358;2022-07-29T17:11:49;4.97;;;3.70;;
54157;SDS011;40065;49.894;10.358;2022-07-29T17:16:56;5.50;;;3.88;;
54157;SDS011;40065;49.894;10.358;2022-07-29T17:22:03;5.22;;;3.67;;
54157;SDS011;40065;49.894;10.358;2022-07-29T17:27:18;4.25;;;3.42;;
54157;SDS011;40065;49.894;10.358;2022-07-29T17:32:20;6.00;;;4.18;;
54157;SDS011;40065;49.894;10.358;2022-07-29T17:37:22;5.03;;;3.42;;
54157;SDS011;40065;49.894;10.358;2022-07-29T17:42:24;5.50;;;4.35;;
54157;SDS011;40065;49.894;10.358;2022-07-29T17:47:26;3.78;;;3.20;;
54157;SDS011;40065;49.894;10.358;2022-07-29T17:52:27;4.45;;;3.40;;
54157;SDS011;40065;49.894;10.358;2022-07-29T17:57:29;3.85;;;3.20;;
54157;SDS011;40065;49.894;10.358;2022-07-29T18:02:31;6.32;;;4.40;;
54157;SDS011;40065;49.894;10.358;2022-07-29T18:07:33;3.22;;;2.70;;
54157;SDS011;40065;49.894;10.358;2022-07-29T18:12:35;4.70;;;3.83;;
54157;SDS011;40065;49.894;10.358;2022-07-29T18:17:37;5.03;;;3.58;;
54157;SDS011;40065;49.894;10.358;2022-07-29T18:22:58;3.67;;;3.20;;
54157;SDS011;40065;49.894;10.358;2022-07-29T18:28:00;3.45;;;2.45;;
54157;SDS011;40065;49.894;10.358;2022-07-29T18:33:03;4.53;;;3.55;;
54157;SDS011;40065;49.894;10.358;2022-07-29T18:38:21;6.35;;;3.97;;
54157;SDS011;40065;49.894;10.358;2022-07-29T18:43:23;4.88;;;3.90;;
54157;SDS011;40065;49.894;10.358;2022-07-29T18:48:25;5.13;;;3.72;;
54157;SDS011;40065;49.894;10.358;2022-07-29T18:53:27;6.60;;;4.35;;
54157;SDS011;40065;49.894;10.358;2022-07-29T18:58:29;5.95;;;4.03;;
54157;SDS011;40065;49.894;10.358;2022-07-29T19:08:34;6.47;;;4.10;;
54157;SDS011;40065;49.894;10.358;2022-07-29T19:13:36;5.47;;;4.10;;
54157;SDS011;40065;49.894;10.358;2022-07-29T19:18:38;4.97;;;3.35;;
54157;SDS011;40065;49.894;10.358;2022-07-29T19:23:41;4.93;;;3.65;;
54157;SDS011;40065;49.894;10.358;2022-07-29T19:29:03;4.20;;;3.80;;
54157;SDS011;40065;49.894;10.358;2022-07-29T19:34:05;5.28;;;4.20;;
54157;SDS011;40065;49.894;10.358;2022-07-29T19:39:07;4.20;;;3.70;;
54157;SDS011;40065;49.894;10.358;2022-07-29T19:44:09;5.60;;;3.90;;
54157;SDS011;40065;49.894;10.358;2022-07-29T19:49:11;5.65;;;4.15;;
54157;SDS011;40065;49.894;10.358;2022-07-29T19:54:13;6.40;;;5.32;;
54157;SDS011;40065;49.894;10.358;2022-07-29T19:59:18;4.53;;;3.95;;
54157;SDS011;40065;49.894;10.358;2022-07-29T20:04:24;4.95;;;3.72;;
54157;SDS011;40065;49.894;10.358;2022-07-29T20:09:26;6.63;;;4.43;;
54157;SDS011;40065;49.894;10.358;2022-07-29T20:14:28;7.82;;;6.03;;
54157;SDS011;40065;49.894;10.358;2022-07-29T20:19:30;7.60;;;5.82;;
54157;SDS011;40065;49.894;10.358;2022-07-29T20:24:33;6.05;;;4.97;;
54157;SDS011;40065;49.894;10.358;2022-07-29T20:29:35;5.90;;;4.30;;
54157;SDS011;40065;49.894;10.358;2022-07-29T20:34:38;6.47;;;5.15;;
54157;SDS011;40065;49.894;10.358;2022-07-29T20:39:41;8.32;;;6.80;;
54157;SDS011;40065;49.894;10.358;2022-07-29T20:44:43;8.00;;;6.97;;
54157;SDS011;40065;49.894;10.358;2022-07-29T20:49:46;7.35;;;6.57;;
54157;SDS011;40065;49.894;10.358;2022-07-29T20:54:48;7.20;;;5.28;;
54157;SDS011;40065;49.894;10.358;2022-07-29T20:59:50;7.68;;;6.00;;
54157;SDS011;40065;49.894;10.358;2022-07-29T21:04:51;6.90;;;6.20;;
54157;SDS011;40065;49.894;10.358;2022-07-29T21:09:53;7.25;;;5.38;;
54157;SDS011;40065;49.894;10.358;2022-07-29T21:14:55;8.65;;;4.95;;
54157;SDS011;40065;49.894;10.358;2022-07-29T21:19:58;5.47;;;4.97;;
54157;SDS011;40065;49.894;10.358;2022-07-29T21:24:59;7.80;;;4.65;;
54157;SDS011;40065;49.894;10.358;2022-07-29T21:30:02;5.18;;;4.03;;
54157;SDS011;40065;49.894;10.358;2022-07-29T21:35:04;8.73;;;6.22;;
54157;SDS011;40065;49.894;10.358;2022-07-29T21:40:22;8.02;;;4.20;;
54157;SDS011;40065;49.894;10.358;2022-07-29T21:45:24;6.07;;;4.60;;
54157;SDS011;40065;49.894;10.358;2022-07-29T21:50:25;5.95;;;4.00;;
54157;SDS011;40065;49.894;10.358;2022-07-29T21:55:27;5.93;;;3.88;;
54157;SDS011;40065;49.894;10.358;2022-07-29T22:00:31;3.47;;;3.17;;
54157;SDS011;40065;49.894;10.358;2022-07-29T22:05:34;5.30;;;4.45;;
54157;SDS011;40065;49.894;10.358;2022-07-29T22:10:35;7.03;;;4.35;;
54157;SDS011;40065;49.894;10.358;2022-07-29T22:15:37;4.72;;;3.80;;
54157;SDS011;40065;49.894;10.358;2022-07-29T22:20:44;5.07;;;3.47;;
54157;SDS011;40065;49.894;10.358;2022-07-29T22:25:46;4.30;;;3.90;;
54157;SDS011;40065;49.894;10.358;2022-07-29T22:30:47;4.50;;;3.80;;
54157;SDS011;40065;49.894;10.358;2022-07-29T22:35:49;7.30;;;5.00;;
54157;SDS011;40065;49.894;10.358;2022-07-29T22:40:51;5.82;;;5.18;;
54157;SDS011;40065;49.894;10.358;2022-07-29T22:45:53;5.20;;;4.47;;
54157;SDS011;40065;49.894;10.358;2022-07-29T22:50:55;4.47;;;3.75;;
54157;SDS011;40065;49.894;10.358;2022-07-29T22:55:57;4.82;;;3.97;;
54157;SDS011;40065;49.894;10.358;2022-07-29T23:00:58;5.25;;;4.07;;
54157;SDS011;40065;49.894;10.358;2022-07-29T23:06:00;5.38;;;4.38;;
54157;SDS011;40065;49.894;10.358;2022-07-29T23:11:02;7.18;;;6.47;;
54157;SDS011;40065;49.894;10.358;2022-07-29T23:16:04;6.90;;;6.20;;
54157;SDS011;40065;49.894;10.358;2022-07-29T23:21:06;8.77;;;6.20;;
54157;SDS011;40065;49.894;10.358;2022-07-29T23:26:08;7.20;;;5.35;;
54157;SDS011;40065;49.894;10.358;2022-07-29T23:31:11;6.90;;;5.68;;
54157;SDS011;40065;49.894;10.358;2022-07-29T23:36:13;5.07;;;4.30;;
54157;SDS011;40065;49.894;10.358;2022-07-29T23:41:15;5.00;;;4.50;;
54157;SDS011;40065;49.894;10.358;2022-07-29T23:46:19;6.32;;;5.40;;
54157;SDS011;40065;49.894;10.358;2022-07-29T23:51:24;5.32;;;4.40;;
54157;SDS011;40065;49.894;10.358;2022-07-29T23:56:26;5.20;;;4.32;;
